sensor_id;sensor_type;location;lat;lon;timestamp;P1;durP1;ratioP1;P2;durP2;ratioP2
69244;SDS011;56357;52.304;4.870;2023-07-31T00:01:25;5.38;;;1.00;;
69244;SDS011;56357;52.304;4.870;2023-07-31T00:03:52;3.70;;;0.88;;
69244;SDS011;56357;52.304;4.870;2023-07-31T00:06:18;4.03;;;0.90;;
69244;SDS011;56357;52.304;4.870;2023-07-31T00:08:45;5.47;;;0.80;;
69244;SDS011;56357;52.304;4.870;2023-07-31T00:11:11;4.68;;;1.27;;
69244;SDS011;56357;52.304;4.870;2023-07-31T00:13:38;3.85;;;0.90;;
69244;SDS011;56357;52.304;4.870;2023-07-31T00:16:04;4.70;;;1.25;;
69244;SDS011;56357;52.304;4.870;2023-07-31T00:18:30;4.40;;;1.25;;
69244;SDS011;56357;52.304;4.870;2023-07-31T00:20:57;4.70;;;1.10;;
69244;SDS011;56357;52.304;4.870;2023-07-31T00:23:23;4.95;;;0.85;;
69244;SDS011;56357;52.304;4.870;2023-07-31T00:25:50;5.55;;;0.98;;
69244;SDS011;56357;52.304;4.870;2023-07-31T00:28:16;4.53;;;1.10;;
69244;SDS011;56357;52.304;4.870;2023-07-31T00:30:43;4.95;;;1.00;;
69244;SDS011;56357;52.304;4.870;2023-07-31T00:33:09;4.50;;;1.30;;
69244;SDS011;56357;52.304;4.870;2023-07-31T00:35:36;4.50;;;1.23;;
69244;SDS011;56357;52.304;4.870;2023-07-31T00:38:02;5.13;;;1.15;;
69244;SDS011;56357;52.304;4.870;2023-07-31T00:40:29;5.60;;;0.95;;
69244;SDS011;56357;52.304;4.870;2023-07-31T00:42:55;4.30;;;1.40;;
69244;SDS011;56357;52.304;4.870;2023-07-31T00:45:22;4.35;;;0.82;;
69244;SDS011;56357;52.304;4.870;2023-07-31T00:47:51;4.20;;;0.82;;
69244;SDS011;56357;52.304;4.870;2023-07-31T00:50:18;6.03;;;1.42;;
69244;SDS011;56357;52.304;4.870;2023-07-31T00:52:45;4.93;;;0.98;;
69244;SDS011;56357;52.304;4.870;2023-07-31T00:55:14;5.38;;;1.30;;
69244;SDS011;56357;52.304;4.870;2023-07-31T00:57:41;4.72;;;0.98;;
69244;SDS011;56357;52.304;4.870;2023-07-31T01:00:08;5.85;;;1.30;;
69244;SDS011;56357;52.304;4.870;2023-07-31T01:02:35;5.25;;;1.15;;
69244;SDS011;56357;52.304;4.870;2023-07-31T01:05:02;4.70;;;1.20;;
69244;SDS011;56357;52.304;4.870;2023-07-31T01:10:16;5.55;;;1.55;;
69244;SDS011;56357;52.304;4.870;2023-07-31T01:12:48;7.75;;;1.63;;
69244;SDS011;56357;52.304;4.870;2023-07-31T01:15:17;5.65;;;1.40;;
69244;SDS011;56357;52.304;4.870;2023-07-31T01:17:43;5.45;;;1.45;;
69244;SDS011;56357;52.304;4.870;2023-07-31T01:20:11;7.20;;;1.50;;
69244;SDS011;56357;52.304;4.870;2023-07-31T01:28:25;5.22;;;1.00;;
69244;SDS011;56357;52.304;4.870;2023-07-31T01:31:01;7.38;;;1.65;;
69244;SDS011;56357;52.304;4.870;2023-07-31T01:33:31;6.75;;;1.80;;
69244;SDS011;56357;52.304;4.870;2023-07-31T01:35:57;5.85;;;1.60;;
69244;SDS011;56357;52.304;4.870;2023-07-31T01:38:24;7.22;;;2.10;;
69244;SDS011;56357;52.304;4.870;2023-07-31T01:40:52;7.25;;;1.45;;
69244;SDS011;56357;52.304;4.870;2023-07-31T01:43:19;8.80;;;2.08;;
69244;SDS011;56357;52.304;4.870;2023-07-31T01:45:46;8.60;;;1.65;;
69244;SDS011;56357;52.304;4.870;2023-07-31T01:48:12;7.30;;;1.80;;
69244;SDS011;56357;52.304;4.870;2023-07-31T01:50:39;7.63;;;2.00;;
69244;SDS011;56357;52.304;4.870;2023-07-31T01:53:05;7.90;;;1.58;;
69244;SDS011;56357;52.304;4.870;2023-07-31T01:55:32;7.13;;;1.70;;
69244;SDS011;56357;52.304;4.870;2023-07-31T01:57:58;10.30;;;2.00;;
69244;SDS011;56357;52.304;4.870;2023-07-31T02:00:25;8.13;;;1.90;;
69244;SDS011;56357;52.304;4.870;2023-07-31T02:02:51;11.80;;;2.22;;
69244;SDS011;56357;52.304;4.870;2023-07-31T02:05:18;8.93;;;2.53;;
69244;SDS011;56357;52.304;4.870;2023-07-31T02:07:44;6.97;;;2.22;;
69244;SDS011;56357;52.304;4.870;2023-07-31T02:10:11;8.00;;;2.08;;
69244;SDS011;56357;52.304;4.870;2023-07-31T02:12:37;6.55;;;1.90;;
69244;SDS011;56357;52.304;4.870;2023-07-31T02:15:04;7.93;;;2.17;;
69244;SDS011;56357;52.304;4.870;2023-07-31T02:17:30;8.20;;;2.03;;
69244;SDS011;56357;52.304;4.870;2023-07-31T02:19:57;10.38;;;2.47;;
69244;SDS011;56357;52.304;4.870;2023-07-31T02:22:23;9.30;;;2.15;;
69244;SDS011;56357;52.304;4.870;2023-07-31T02:24:50;7.88;;;2.60;;
69244;SDS011;56357;52.304;4.870;2023-07-31T02:27:16;8.23;;;2.22;;
69244;SDS011;56357;52.304;4.870;2023-07-31T02:29:43;7.28;;;1.70;;
69244;SDS011;56357;52.304;4.870;2023-07-31T02:32:09;9.68;;;2.20;;
69244;SDS011;56357;52.304;4.870;2023-07-31T02:34:36;11.48;;;2.72;;
69244;SDS011;56357;52.304;4.870;2023-07-31T02:37:02;9.88;;;2.53;;
69244;SDS011;56357;52.304;4.870;2023-07-31T02:39:29;6.57;;;2.45;;
69244;SDS011;56357;52.304;4.870;2023-07-31T02:41:55;8.45;;;2.20;;
69244;SDS011;56357;52.304;4.870;2023-07-31T02:44:22;10.45;;;2.80;;
69244;SDS011;56357;52.304;4.870;2023-07-31T02:46:48;9.75;;;2.67;;
69244;SDS011;56357;52.304;4.870;2023-07-31T02:49:15;9.40;;;2.35;;
69244;SDS011;56357;52.304;4.870;2023-07-31T02:51:42;9.38;;;2.22;;
69244;SDS011;56357;52.304;4.870;2023-07-31T02:54:08;9.18;;;2.13;;
69244;SDS011;56357;52.304;4.870;2023-07-31T02:56:35;10.43;;;2.30;;
69244;SDS011;56357;52.304;4.870;2023-07-31T02:59:01;9.90;;;2.85;;
69244;SDS011;56357;52.304;4.870;2023-07-31T03:01:28;9.52;;;3.05;;
69244;SDS011;56357;52.304;4.870;2023-07-31T03:03:54;7.75;;;2.20;;
69244;SDS011;56357;52.304;4.870;2023-07-31T03:06:21;8.25;;;2.05;;
69244;SDS011;56357;52.304;4.870;2023-07-31T03:08:47;7.70;;;2.45;;
69244;SDS011;56357;52.304;4.870;2023-07-31T03:11:14;8.82;;;2.67;;
69244;SDS011;56357;52.304;4.870;2023-07-31T03:13:40;10.45;;;2.92;;
69244;SDS011;56357;52.304;4.870;2023-07-31T03:16:07;10.30;;;2.50;;
69244;SDS011;56357;52.304;4.870;2023-07-31T03:18:34;10.48;;;2.58;;
69244;SDS011;56357;52.304;4.870;2023-07-31T03:21:00;8.38;;;2.60;;
69244;SDS011;56357;52.304;4.870;2023-07-31T03:23:27;11.07;;;2.25;;
69244;SDS011;56357;52.304;4.870;2023-07-31T03:25:57;11.60;;;2.72;;
69244;SDS011;56357;52.304;4.870;2023-07-31T03:28:24;9.95;;;2.55;;
69244;SDS011;56357;52.304;4.870;2023-07-31T03:30:51;11.55;;;2.70;;
69244;SDS011;56357;52.304;4.870;2023-07-31T03:33:18;12.30;;;2.95;;
69244;SDS011;56357;52.304;4.870;2023-07-31T03:35:45;9.23;;;2.80;;
69244;SDS011;56357;52.304;4.870;2023-07-31T03:38:12;10.68;;;3.00;;
69244;SDS011;56357;52.304;4.870;2023-07-31T03:40:39;11.75;;;3.40;;
69244;SDS011;56357;52.304;4.870;2023-07-31T03:43:05;9.45;;;2.58;;
69244;SDS011;56357;52.304;4.870;2023-07-31T03:45:31;10.65;;;2.53;;
69244;SDS011;56357;52.304;4.870;2023-07-31T03:47:58;8.48;;;2.70;;
69244;SDS011;56357;52.304;4.870;2023-07-31T03:50:25;7.45;;;2.92;;
69244;SDS011;56357;52.304;4.870;2023-07-31T03:52:51;11.57;;;2.90;;
69244;SDS011;56357;52.304;4.870;2023-07-31T03:55:18;10.75;;;2.90;;
69244;SDS011;56357;52.304;4.870;2023-07-31T03:57:45;9.23;;;2.40;;
69244;SDS011;56357;52.304;4.870;2023-07-31T04:00:11;10.50;;;2.70;;
69244;SDS011;56357;52.304;4.870;2023-07-31T04:02:38;10.85;;;3.03;;
69244;SDS011;56357;52.304;4.870;2023-07-31T04:05:04;10.02;;;2.78;;
69244;SDS011;56357;52.304;4.870;2023-07-31T04:07:31;9.55;;;2.53;;
69244;SDS011;56357;52.304;4.870;2023-07-31T04:09:57;9.43;;;2.72;;
69244;SDS011;56357;52.304;4.870;2023-07-31T04:12:24;9.98;;;2.50;;
69244;SDS011;56357;52.304;4.870;2023-07-31T04:14:50;11.43;;;2.85;;
69244;SDS011;56357;52.304;4.870;2023-07-31T04:17:17;10.10;;;2.33;;
69244;SDS011;56357;52.304;4.870;2023-07-31T04:19:44;9.38;;;2.63;;
69244;SDS011;56357;52.304;4.870;2023-07-31T04:22:10;12.02;;;3.08;;
69244;SDS011;56357;52.304;4.870;2023-07-31T04:24:37;8.32;;;2.60;;
69244;SDS011;56357;52.304;4.870;2023-07-31T04:27:03;11.55;;;3.22;;
69244;SDS011;56357;52.304;4.870;2023-07-31T04:29:30;10.98;;;3.13;;
69244;SDS011;56357;52.304;4.870;2023-07-31T04:31:56;9.93;;;2.78;;
69244;SDS011;56357;52.304;4.870;2023-07-31T04:34:23;10.60;;;3.47;;
69244;SDS011;56357;52.304;4.870;2023-07-31T04:36:49;10.05;;;2.80;;
69244;SDS011;56357;52.304;4.870;2023-07-31T04:39:16;12.60;;;3.15;;
69244;SDS011;56357;52.304;4.870;2023-07-31T04:41:42;11.95;;;2.88;;
69244;SDS011;56357;52.304;4.870;2023-07-31T04:44:08;8.80;;;2.60;;
69244;SDS011;56357;52.304;4.870;2023-07-31T04:46:36;9.10;;;2.90;;
69244;SDS011;56357;52.304;4.870;2023-07-31T04:49:02;10.25;;;2.70;;
69244;SDS011;56357;52.304;4.870;2023-07-31T04:51:29;10.45;;;2.58;;
69244;SDS011;56357;52.304;4.870;2023-07-31T04:53:56;12.43;;;3.33;;
69244;SDS011;56357;52.304;4.870;2023-07-31T04:56:22;10.77;;;2.70;;
69244;SDS011;56357;52.304;4.870;2023-07-31T04:58:49;7.57;;;2.30;;
69244;SDS011;56357;52.304;4.870;2023-07-31T05:01:15;7.85;;;2.00;;
69244;SDS011;56357;52.304;4.870;2023-07-31T05:03:42;8.55;;;2.85;;
69244;SDS011;56357;52.304;4.870;2023-07-31T05:06:08;8.57;;;2.53;;
69244;SDS011;56357;52.304;4.870;2023-07-31T05:08:35;9.40;;;2.78;;
69244;SDS011;56357;52.304;4.870;2023-07-31T05:11:01;7.20;;;1.95;;
69244;SDS011;56357;52.304;4.870;2023-07-31T05:13:28;10.57;;;2.50;;
69244;SDS011;56357;52.304;4.870;2023-07-31T05:15:55;9.15;;;2.03;;
69244;SDS011;56357;52.304;4.870;2023-07-31T05:18:21;10.02;;;2.50;;
69244;SDS011;56357;52.304;4.870;2023-07-31T05:20:47;8.43;;;2.35;;
69244;SDS011;56357;52.304;4.870;2023-07-31T05:23:14;8.63;;;2.17;;
69244;SDS011;56357;52.304;4.870;2023-07-31T05:25:40;9.00;;;2.50;;
69244;SDS011;56357;52.304;4.870;2023-07-31T05:28:07;8.32;;;2.58;;
69244;SDS011;56357;52.304;4.870;2023-07-31T05:30:33;9.10;;;2.13;;
69244;SDS011;56357;52.304;4.870;2023-07-31T05:33:00;9.23;;;2.30;;
69244;SDS011;56357;52.304;4.870;2023-07-31T05:35:26;8.55;;;2.40;;
69244;SDS011;56357;52.304;4.870;2023-07-31T05:37:53;9.30;;;2.30;;
69244;SDS011;56357;52.304;4.870;2023-07-31T05:40:19;6.78;;;2.20;;
69244;SDS011;56357;52.304;4.870;2023-07-31T05:42:49;6.25;;;1.90;;
69244;SDS011;56357;52.304;4.870;2023-07-31T05:45:15;9.65;;;2.50;;
69244;SDS011;56357;52.304;4.870;2023-07-31T05:47:41;6.10;;;2.03;;
69244;SDS011;56357;52.304;4.870;2023-07-31T05:50:08;7.80;;;2.20;;
69244;SDS011;56357;52.304;4.870;2023-07-31T05:52:35;7.18;;;2.30;;
69244;SDS011;56357;52.304;4.870;2023-07-31T05:55:01;8.00;;;1.92;;
69244;SDS011;56357;52.304;4.870;2023-07-31T05:57:28;7.18;;;2.03;;
69244;SDS011;56357;52.304;4.870;2023-07-31T05:59:54;6.20;;;1.98;;
69244;SDS011;56357;52.304;4.870;2023-07-31T06:02:21;6.25;;;1.77;;
69244;SDS011;56357;52.304;4.870;2023-07-31T06:04:47;6.35;;;1.95;;
69244;SDS011;56357;52.304;4.870;2023-07-31T06:07:14;5.72;;;1.90;;
69244;SDS011;56357;52.304;4.870;2023-07-31T06:09:40;7.07;;;1.70;;
69244;SDS011;56357;52.304;4.870;2023-07-31T06:12:07;5.65;;;1.52;;
69244;SDS011;56357;52.304;4.870;2023-07-31T06:14:33;6.22;;;1.70;;
69244;SDS011;56357;52.304;4.870;2023-07-31T06:17:00;5.43;;;1.58;;
69244;SDS011;56357;52.304;4.870;2023-07-31T06:19:26;6.45;;;1.75;;
69244;SDS011;56357;52.304;4.870;2023-07-31T06:21:53;5.38;;;1.35;;
69244;SDS011;56357;52.304;4.870;2023-07-31T06:24:19;7.35;;;2.00;;
69244;SDS011;56357;52.304;4.870;2023-07-31T06:26:47;5.82;;;2.13;;
69244;SDS011;56357;52.304;4.870;2023-07-31T06:29:13;5.78;;;1.77;;
69244;SDS011;56357;52.304;4.870;2023-07-31T06:31:40;6.30;;;1.88;;
69244;SDS011;56357;52.304;4.870;2023-07-31T06:34:07;5.25;;;1.30;;
69244;SDS011;56357;52.304;4.870;2023-07-31T06:36:33;6.45;;;1.85;;
69244;SDS011;56357;52.304;4.870;2023-07-31T06:39:00;5.00;;;1.60;;
69244;SDS011;56357;52.304;4.870;2023-07-31T06:41:26;5.15;;;1.73;;
69244;SDS011;56357;52.304;4.870;2023-07-31T06:43:53;6.80;;;1.73;;
69244;SDS011;56357;52.304;4.870;2023-07-31T06:46:19;4.38;;;1.10;;
69244;SDS011;56357;52.304;4.870;2023-07-31T06:48:46;5.05;;;1.33;;
69244;SDS011;56357;52.304;4.870;2023-07-31T06:51:12;5.78;;;1.40;;
69244;SDS011;56357;52.304;4.870;2023-07-31T06:53:39;5.03;;;1.20;;
69244;SDS011;56357;52.304;4.870;2023-07-31T06:56:06;5.13;;;1.50;;
69244;SDS011;56357;52.304;4.870;2023-07-31T06:58:32;5.20;;;1.60;;
69244;SDS011;56357;52.304;4.870;2023-07-31T07:00:59;5.38;;;1.20;;
69244;SDS011;56357;52.304;4.870;2023-07-31T07:03:25;5.20;;;1.40;;
69244;SDS011;56357;52.304;4.870;2023-07-31T07:05:53;5.60;;;1.30;;
69244;SDS011;56357;52.304;4.870;2023-07-31T07:08:20;5.72;;;1.15;;
69244;SDS011;56357;52.304;4.870;2023-07-31T07:10:46;4.55;;;1.42;;
69244;SDS011;56357;52.304;4.870;2023-07-31T07:13:13;4.95;;;1.20;;
69244;SDS011;56357;52.304;4.870;2023-07-31T07:15:39;4.80;;;1.13;;
69244;SDS011;56357;52.304;4.870;2023-07-31T07:18:06;5.60;;;1.10;;
69244;SDS011;56357;52.304;4.870;2023-07-31T07:20:32;4.40;;;1.00;;
69244;SDS011;56357;52.304;4.870;2023-07-31T07:22:59;4.72;;;1.27;;
69244;SDS011;56357;52.304;4.870;2023-07-31T07:25:25;5.55;;;1.67;;
69244;SDS011;56357;52.304;4.870;2023-07-31T07:27:52;4.68;;;1.02;;
69244;SDS011;56357;52.304;4.870;2023-07-31T07:30:19;4.82;;;1.27;;
69244;SDS011;56357;52.304;4.870;2023-07-31T07:32:45;4.00;;;1.05;;
69244;SDS011;56357;52.304;4.870;2023-07-31T07:35:12;4.20;;;1.17;;
69244;SDS011;56357;52.304;4.870;2023-07-31T07:37:38;3.97;;;1.10;;
69244;SDS011;56357;52.304;4.870;2023-07-31T07:40:05;5.35;;;1.10;;
69244;SDS011;56357;52.304;4.870;2023-07-31T07:42:32;4.20;;;1.10;;
69244;SDS011;56357;52.304;4.870;2023-07-31T07:44:59;5.18;;;1.00;;
69244;SDS011;56357;52.304;4.870;2023-07-31T07:47:25;4.25;;;0.90;;
69244;SDS011;56357;52.304;4.870;2023-07-31T07:49:52;4.53;;;1.13;;
69244;SDS011;56357;52.304;4.870;2023-07-31T07:52:18;4.28;;;1.10;;
69244;SDS011;56357;52.304;4.870;2023-07-31T07:54:45;4.30;;;1.08;;
69244;SDS011;56357;52.304;4.870;2023-07-31T07:57:11;3.63;;;1.02;;
69244;SDS011;56357;52.304;4.870;2023-07-31T07:59:38;3.83;;;1.10;;
69244;SDS011;56357;52.304;4.870;2023-07-31T08:02:04;5.03;;;1.30;;
69244;SDS011;56357;52.304;4.870;2023-07-31T08:04:31;4.45;;;1.08;;
69244;SDS011;56357;52.304;4.870;2023-07-31T08:06:58;4.20;;;1.17;;
69244;SDS011;56357;52.304;4.870;2023-07-31T08:09:24;4.63;;;0.82;;
69244;SDS011;56357;52.304;4.870;2023-07-31T08:11:51;4.50;;;0.90;;
69244;SDS011;56357;52.304;4.870;2023-07-31T08:14:17;4.57;;;1.00;;
69244;SDS011;56357;52.304;4.870;2023-07-31T08:16:44;3.90;;;0.93;;
69244;SDS011;56357;52.304;4.870;2023-07-31T08:19:10;5.47;;;1.25;;
69244;SDS011;56357;52.304;4.870;2023-07-31T08:21:37;3.55;;;1.00;;
69244;SDS011;56357;52.304;4.870;2023-07-31T08:24:03;4.15;;;1.00;;
69244;SDS011;56357;52.304;4.870;2023-07-31T08:26:30;4.25;;;1.15;;
69244;SDS011;56357;52.304;4.870;2023-07-31T08:28:57;4.15;;;1.05;;
69244;SDS011;56357;52.304;4.870;2023-07-31T08:31:23;4.05;;;0.95;;
69244;SDS011;56357;52.304;4.870;2023-07-31T08:33:51;3.63;;;0.80;;
69244;SDS011;56357;52.304;4.870;2023-07-31T08:36:18;3.63;;;1.02;;
69244;SDS011;56357;52.304;4.870;2023-07-31T08:38:45;3.70;;;0.73;;
69244;SDS011;56357;52.304;4.870;2023-07-31T08:41:12;4.13;;;1.23;;
69244;SDS011;56357;52.304;4.870;2023-07-31T08:43:39;3.45;;;0.90;;
69244;SDS011;56357;52.304;4.870;2023-07-31T08:46:06;3.80;;;0.70;;
69244;SDS011;56357;52.304;4.870;2023-07-31T08:48:33;4.68;;;1.10;;
69244;SDS011;56357;52.304;4.870;2023-07-31T08:51:01;3.45;;;0.65;;
69244;SDS011;56357;52.304;4.870;2023-07-31T08:53:28;3.85;;;0.80;;
69244;SDS011;56357;52.304;4.870;2023-07-31T08:55:55;3.88;;;0.90;;
69244;SDS011;56357;52.304;4.870;2023-07-31T08:58:24;3.85;;;1.05;;
69244;SDS011;56357;52.304;4.870;2023-07-31T09:00:53;4.93;;;0.85;;
69244;SDS011;56357;52.304;4.870;2023-07-31T09:03:21;3.83;;;1.00;;
69244;SDS011;56357;52.304;4.870;2023-07-31T09:05:50;5.28;;;1.10;;
69244;SDS011;56357;52.304;4.870;2023-07-31T09:08:18;4.05;;;1.00;;
69244;SDS011;56357;52.304;4.870;2023-07-31T09:10:47;4.95;;;1.08;;
69244;SDS011;56357;52.304;4.870;2023-07-31T09:13:15;4.07;;;0.80;;
69244;SDS011;56357;52.304;4.870;2023-07-31T09:15:43;5.00;;;1.02;;
69244;SDS011;56357;52.304;4.870;2023-07-31T09:18:11;4.57;;;0.88;;
69244;SDS011;56357;52.304;4.870;2023-07-31T09:20:39;5.28;;;1.13;;
69244;SDS011;56357;52.304;4.870;2023-07-31T09:23:09;6.32;;;1.15;;
69244;SDS011;56357;52.304;4.870;2023-07-31T09:25:38;4.50;;;1.00;;
69244;SDS011;56357;52.304;4.870;2023-07-31T09:28:06;6.78;;;1.40;;
69244;SDS011;56357;52.304;4.870;2023-07-31T09:33:14;4.20;;;0.88;;
69244;SDS011;56357;52.304;4.870;2023-07-31T09:35:41;6.35;;;0.98;;
69244;SDS011;56357;52.304;4.870;2023-07-31T09:38:11;4.47;;;1.00;;
69244;SDS011;56357;52.304;4.870;2023-07-31T09:40:40;4.53;;;1.05;;
69244;SDS011;56357;52.304;4.870;2023-07-31T09:43:09;6.10;;;1.13;;
69244;SDS011;56357;52.304;4.870;2023-07-31T09:45:38;5.18;;;1.10;;
69244;SDS011;56357;52.304;4.870;2023-07-31T09:48:12;4.38;;;0.98;;
69244;SDS011;56357;52.304;4.870;2023-07-31T09:50:44;5.85;;;1.23;;
69244;SDS011;56357;52.304;4.870;2023-07-31T09:53:12;4.53;;;0.82;;
69244;SDS011;56357;52.304;4.870;2023-07-31T09:55:40;4.95;;;0.73;;
69244;SDS011;56357;52.304;4.870;2023-07-31T09:58:08;4.63;;;1.08;;
69244;SDS011;56357;52.304;4.870;2023-07-31T10:00:35;7.47;;;1.20;;
69244;SDS011;56357;52.304;4.870;2023-07-31T10:03:07;5.30;;;1.40;;
69244;SDS011;56357;52.304;4.870;2023-07-31T10:05:37;7.28;;;1.20;;
69244;SDS011;56357;52.304;4.870;2023-07-31T10:08:07;4.50;;;1.20;;
69244;SDS011;56357;52.304;4.870;2023-07-31T10:10:36;5.65;;;1.02;;
69244;SDS011;56357;52.304;4.870;2023-07-31T10:13:03;4.05;;;1.05;;
69244;SDS011;56357;52.304;4.870;2023-07-31T10:15:31;5.72;;;1.25;;
69244;SDS011;56357;52.304;4.870;2023-07-31T10:17:58;6.20;;;1.35;;
69244;SDS011;56357;52.304;4.870;2023-07-31T10:20:25;5.03;;;1.00;;
69244;SDS011;56357;52.304;4.870;2023-07-31T10:22:53;4.78;;;1.10;;
69244;SDS011;56357;52.304;4.870;2023-07-31T10:25:21;6.05;;;1.27;;
69244;SDS011;56357;52.304;4.870;2023-07-31T10:27:48;5.05;;;1.08;;
69244;SDS011;56357;52.304;4.870;2023-07-31T10:30:15;6.43;;;1.10;;
69244;SDS011;56357;52.304;4.870;2023-07-31T10:32:44;5.70;;;0.90;;
69244;SDS011;56357;52.304;4.870;2023-07-31T10:35:11;5.40;;;1.20;;
69244;SDS011;56357;52.304;4.870;2023-07-31T10:48:02;5.05;;;1.02;;
69244;SDS011;56357;52.304;4.870;2023-07-31T10:50:31;5.03;;;1.10;;
69244;SDS011;56357;52.304;4.870;2023-07-31T10:52:58;6.30;;;1.00;;
69244;SDS011;56357;52.304;4.870;2023-07-31T10:58:19;5.45;;;1.13;;
69244;SDS011;56357;52.304;4.870;2023-07-31T11:00:46;6.65;;;1.17;;
69244;SDS011;56357;52.304;4.870;2023-07-31T11:03:14;5.25;;;1.40;;
69244;SDS011;56357;52.304;4.870;2023-07-31T11:08:18;5.45;;;1.33;;
69244;SDS011;56357;52.304;4.870;2023-07-31T11:11:04;5.50;;;1.02;;
69244;SDS011;56357;52.304;4.870;2023-07-31T11:13:42;5.28;;;1.58;;
69244;SDS011;56357;52.304;4.870;2023-07-31T11:16:14;5.65;;;1.05;;
69244;SDS011;56357;52.304;4.870;2023-07-31T11:18:41;5.20;;;1.17;;
69244;SDS011;56357;52.304;4.870;2023-07-31T11:21:12;5.78;;;1.10;;
69244;SDS011;56357;52.304;4.870;2023-07-31T11:23:50;6.78;;;1.30;;
69244;SDS011;56357;52.304;4.870;2023-07-31T11:26:18;7.03;;;1.40;;
69244;SDS011;56357;52.304;4.870;2023-07-31T11:28:46;5.07;;;1.55;;
69244;SDS011;56357;52.304;4.870;2023-07-31T11:31:13;4.78;;;0.98;;
69244;SDS011;56357;52.304;4.870;2023-07-31T11:33:40;3.42;;;0.90;;
69244;SDS011;56357;52.304;4.870;2023-07-31T11:36:09;4.07;;;0.98;;
69244;SDS011;56357;52.304;4.870;2023-07-31T11:38:41;5.03;;;1.30;;
69244;SDS011;56357;52.304;4.870;2023-07-31T11:41:07;5.15;;;1.50;;
69244;SDS011;56357;52.304;4.870;2023-07-31T11:43:34;5.68;;;1.10;;
69244;SDS011;56357;52.304;4.870;2023-07-31T11:46:01;6.93;;;1.25;;
69244;SDS011;56357;52.304;4.870;2023-07-31T11:48:29;6.07;;;1.30;;
69244;SDS011;56357;52.304;4.870;2023-07-31T11:51:00;6.30;;;1.35;;
69244;SDS011;56357;52.304;4.870;2023-07-31T11:55:57;4.45;;;1.05;;
69244;SDS011;56357;52.304;4.870;2023-07-31T11:58:25;5.40;;;1.33;;
69244;SDS011;56357;52.304;4.870;2023-07-31T12:00:52;4.47;;;1.02;;
69244;SDS011;56357;52.304;4.870;2023-07-31T12:03:20;5.63;;;1.23;;
69244;SDS011;56357;52.304;4.870;2023-07-31T12:05:47;4.32;;;0.98;;
69244;SDS011;56357;52.304;4.870;2023-07-31T12:08:14;5.78;;;1.10;;
69244;SDS011;56357;52.304;4.870;2023-07-31T12:10:41;5.50;;;1.20;;
69244;SDS011;56357;52.304;4.870;2023-07-31T12:13:19;7.18;;;1.45;;
69244;SDS011;56357;52.304;4.870;2023-07-31T12:15:47;5.10;;;1.00;;
69244;SDS011;56357;52.304;4.870;2023-07-31T12:18:17;6.85;;;1.23;;
69244;SDS011;56357;52.304;4.870;2023-07-31T12:20:46;8.30;;;1.30;;
69244;SDS011;56357;52.304;4.870;2023-07-31T12:23:27;7.40;;;1.20;;
69244;SDS011;56357;52.304;4.870;2023-07-31T12:26:15;3.65;;;1.00;;
69244;SDS011;56357;52.304;4.870;2023-07-31T12:31:12;6.28;;;1.27;;
69244;SDS011;56357;52.304;4.870;2023-07-31T12:33:42;4.57;;;1.17;;
69244;SDS011;56357;52.304;4.870;2023-07-31T12:36:09;6.05;;;1.63;;
69244;SDS011;56357;52.304;4.870;2023-07-31T12:38:40;4.53;;;1.20;;
69244;SDS011;56357;52.304;4.870;2023-07-31T12:41:07;4.50;;;1.20;;
69244;SDS011;56357;52.304;4.870;2023-07-31T12:43:34;5.05;;;1.05;;
69244;SDS011;56357;52.304;4.870;2023-07-31T12:46:01;4.40;;;0.88;;
69244;SDS011;56357;52.304;4.870;2023-07-31T12:48:28;6.47;;;1.17;;
69244;SDS011;56357;52.304;4.870;2023-07-31T12:50:54;5.70;;;1.48;;
69244;SDS011;56357;52.304;4.870;2023-07-31T12:53:21;5.10;;;1.30;;
69244;SDS011;56357;52.304;4.870;2023-07-31T12:55:48;5.63;;;1.33;;
69244;SDS011;56357;52.304;4.870;2023-07-31T12:58:15;4.18;;;1.30;;
69244;SDS011;56357;52.304;4.870;2023-07-31T13:00:41;5.60;;;1.20;;
69244;SDS011;56357;52.304;4.870;2023-07-31T13:03:08;5.57;;;0.98;;
69244;SDS011;56357;52.304;4.870;2023-07-31T13:05:35;5.28;;;1.10;;
69244;SDS011;56357;52.304;4.870;2023-07-31T13:08:02;5.90;;;1.42;;
69244;SDS011;56357;52.304;4.870;2023-07-31T13:10:29;5.25;;;1.27;;
69244;SDS011;56357;52.304;4.870;2023-07-31T13:12:55;5.25;;;1.10;;
69244;SDS011;56357;52.304;4.870;2023-07-31T13:15:23;5.35;;;1.30;;
69244;SDS011;56357;52.304;4.870;2023-07-31T13:17:49;5.65;;;1.30;;
69244;SDS011;56357;52.304;4.870;2023-07-31T13:20:16;3.92;;;1.17;;
69244;SDS011;56357;52.304;4.870;2023-07-31T13:22:42;5.70;;;1.40;;
69244;SDS011;56357;52.304;4.870;2023-07-31T13:25:09;3.97;;;1.08;;
69244;SDS011;56357;52.304;4.870;2023-07-31T13:27:35;6.35;;;0.95;;
69244;SDS011;56357;52.304;4.870;2023-07-31T13:30:02;6.05;;;1.30;;
69244;SDS011;56357;52.304;4.870;2023-07-31T13:32:29;5.20;;;0.90;;
69244;SDS011;56357;52.304;4.870;2023-07-31T13:34:55;5.88;;;0.90;;
69244;SDS011;56357;52.304;4.870;2023-07-31T13:37:22;4.95;;;1.02;;
69244;SDS011;56357;52.304;4.870;2023-07-31T13:39:48;4.90;;;0.95;;
69244;SDS011;56357;52.304;4.870;2023-07-31T13:42:15;6.00;;;1.08;;
69244;SDS011;56357;52.304;4.870;2023-07-31T13:44:42;6.53;;;0.80;;
69244;SDS011;56357;52.304;4.870;2023-07-31T13:47:08;5.47;;;1.33;;
69244;SDS011;56357;52.304;4.870;2023-07-31T13:49:35;6.03;;;0.77;;
69244;SDS011;56357;52.304;4.870;2023-07-31T13:52:03;4.65;;;0.90;;
69244;SDS011;56357;52.304;4.870;2023-07-31T13:54:30;5.32;;;1.08;;
69244;SDS011;56357;52.304;4.870;2023-07-31T13:56:57;5.47;;;1.25;;
69244;SDS011;56357;52.304;4.870;2023-07-31T13:59:23;4.85;;;1.10;;
69244;SDS011;56357;52.304;4.870;2023-07-31T14:01:50;3.72;;;0.80;;
69244;SDS011;56357;52.304;4.870;2023-07-31T14:04:17;4.60;;;0.82;;
69244;SDS011;56357;52.304;4.870;2023-07-31T14:06:44;4.38;;;1.00;;
69244;SDS011;56357;52.304;4.870;2023-07-31T14:09:12;5.00;;;0.90;;
69244;SDS011;56357;52.304;4.870;2023-07-31T14:11:39;4.80;;;0.93;;
69244;SDS011;56357;52.304;4.870;2023-07-31T14:14:06;4.85;;;0.95;;
69244;SDS011;56357;52.304;4.870;2023-07-31T14:16:32;3.58;;;0.85;;
69244;SDS011;56357;52.304;4.870;2023-07-31T14:18:58;3.50;;;0.80;;
69244;SDS011;56357;52.304;4.870;2023-07-31T14:21:25;5.78;;;1.33;;
69244;SDS011;56357;52.304;4.870;2023-07-31T14:23:52;4.07;;;1.20;;
69244;SDS011;56357;52.304;4.870;2023-07-31T14:26:19;4.30;;;1.10;;
69244;SDS011;56357;52.304;4.870;2023-07-31T14:28:45;5.75;;;0.90;;
69244;SDS011;56357;52.304;4.870;2023-07-31T14:31:12;3.97;;;1.02;;
69244;SDS011;56357;52.304;4.870;2023-07-31T14:33:38;5.32;;;0.90;;
69244;SDS011;56357;52.304;4.870;2023-07-31T14:36:05;4.82;;;1.00;;
69244;SDS011;56357;52.304;4.870;2023-07-31T14:38:32;7.60;;;1.30;;
69244;SDS011;56357;52.304;4.870;2023-07-31T14:40:58;4.78;;;0.98;;
69244;SDS011;56357;52.304;4.870;2023-07-31T14:43:25;4.57;;;1.23;;
69244;SDS011;56357;52.304;4.870;2023-07-31T14:45:51;4.30;;;0.80;;
69244;SDS011;56357;52.304;4.870;2023-07-31T14:48:18;4.90;;;0.98;;
69244;SDS011;56357;52.304;4.870;2023-07-31T14:50:45;4.13;;;1.27;;
69244;SDS011;56357;52.304;4.870;2023-07-31T14:53:11;4.40;;;1.10;;
69244;SDS011;56357;52.304;4.870;2023-07-31T14:55:38;3.53;;;1.02;;
69244;SDS011;56357;52.304;4.870;2023-07-31T14:58:04;4.65;;;0.82;;
69244;SDS011;56357;52.304;4.870;2023-07-31T15:00:31;4.72;;;1.13;;
69244;SDS011;56357;52.304;4.870;2023-07-31T15:02:57;4.40;;;0.95;;
69244;SDS011;56357;52.304;4.870;2023-07-31T15:05:24;6.63;;;1.15;;
69244;SDS011;56357;52.304;4.870;2023-07-31T15:07:50;4.03;;;0.85;;
69244;SDS011;56357;52.304;4.870;2023-07-31T15:10:16;5.35;;;0.90;;
69244;SDS011;56357;52.304;4.870;2023-07-31T15:12:43;4.03;;;0.80;;
69244;SDS011;56357;52.304;4.870;2023-07-31T15:15:09;4.90;;;0.98;;
69244;SDS011;56357;52.304;4.870;2023-07-31T15:17:36;5.32;;;0.82;;